Time;durP1;ratioP1;P1;durP2;ratioP2;P2;SDS_P1;SDS_P2;PMS_P1;PMS_P2;Temp;Humidity;BMP_temperature;BMP_pressure;BME280_temperature;BME280_humidity;BME280_pressure;Samples;Min_cycle;Max_cycle;Signal;HPM_P1;HPM_P2
2021/10/20 00:01:54;;;;;;;28.53;17.50;;;11.30;99.90;;;;;;5249068;28;20679;-67
2021/10/20 00:04:29;;;;;;;25.63;16.40;;;11.30;99.90;;;;;;5250892;28;20565;-68
2021/10/20 00:07:03;;;;;;;26.37;17.43;;;11.30;99.90;;;;;;5250297;28;20246;-66
2021/10/20 00:09:35;;;;;;;26.13;15.93;;;11.30;99.90;;;;;;5250072;28;20215;-67
2021/10/20 00:12:07;;;;;;;23.07;15.97;;;11.30;99.90;;;;;;5248577;28;20240;-64
2021/10/20 00:14:39;;;;;;;22.67;15.70;;;11.30;99.90;;;;;;5248950;28;20205;-64
2021/10/20 00:17:11;;;;;;;25.23;16.60;;;11.30;99.90;;;;;;5249852;28;20251;-67
2021/10/20 00:19:43;;;;;;;24.73;17.47;;;11.30;99.90;;;;;;5250341;28;20536;-68
2021/10/20 00:22:18;;;;;;;25.40;16.17;;;11.30;99.90;;;;;;5249649;28;20229;-67
2021/10/20 00:24:49;;;;;;;28.33;16.00;;;11.30;99.90;;;;;;5248828;28;20582;-64
2021/10/20 00:27:24;;;;;;;28.03;16.47;;;11.30;99.90;;;;;;5249839;28;20243;-64
2021/10/20 00:29:58;;;;;;;28.60;16.07;;;11.40;99.90;;;;;;5249059;28;20207;-63
2021/10/20 00:32:30;;;;;;;26.30;16.87;;;11.40;99.90;;;;;;5249345;28;20237;-63
2021/10/20 00:35:03;;;;;;;28.03;16.93;;;11.50;99.90;;;;;;5249763;28;20197;-65
2021/10/20 00:37:37;;;;;;;24.33;16.60;;;11.50;99.90;;;;;;5248466;28;20225;-62
2021/10/20 00:40:10;;;;;;;25.23;16.33;;;11.50;99.90;;;;;;5249827;28;20700;-64
2021/10/20 00:42:44;;;;;;;25.40;16.43;;;11.50;99.90;;;;;;5249891;28;20243;-67
2021/10/20 00:45:19;;;;;;;29.23;17.70;;;11.50;99.90;;;;;;5249312;28;20219;-65
2021/10/20 00:47:51;;;;;;;26.33;16.83;;;11.50;99.90;;;;;;5249487;28;20227;-66
2021/10/20 00:50:23;;;;;;;25.40;17.07;;;11.50;99.90;;;;;;5249580;28;20605;-64
2021/10/20 00:52:55;;;;;;;28.37;16.63;;;11.50;99.90;;;;;;5249784;28;20541;-70
2021/10/20 00:55:27;;;;;;;28.13;16.87;;;11.60;99.90;;;;;;5249382;28;20224;-64
2021/10/20 00:58:00;;;;;;;29.03;17.33;;;11.50;99.90;;;;;;5249409;28;20544;-68
2021/10/20 01:00:32;;;;;;;27.03;17.17;;;11.60;99.90;;;;;;5248454;28;20215;-66
2021/10/20 01:03:04;;;;;;;27.87;17.07;;;11.50;99.90;;;;;;5248984;28;20239;-69
2021/10/20 01:05:36;;;;;;;27.60;17.53;;;11.50;99.90;;;;;;5249265;28;20205;-68
2021/10/20 01:08:08;;;;;;;26.03;16.87;;;11.60;99.90;;;;;;5249007;28;20221;-65
2021/10/20 01:10:40;;;;;;;24.93;17.23;;;11.60;99.90;;;;;;5249498;28;20704;-64
2021/10/20 01:13:12;;;;;;;25.63;17.60;;;11.60;99.90;;;;;;5249423;28;20546;-65
2021/10/20 01:15:44;;;;;;;26.47;18.63;;;11.50;99.90;;;;;;5249155;28;20201;-65
2021/10/20 01:18:16;;;;;;;28.33;17.70;;;11.50;99.90;;;;;;5249302;28;20232;-69
2021/10/20 01:20:53;;;;;;;26.60;17.73;;;11.50;99.90;;;;;;5248389;28;20522;-65
2021/10/20 01:23:27;;;;;;;28.50;17.03;;;11.60;99.90;;;;;;5248284;28;20232;-65
2021/10/20 01:26:00;;;;;;;26.10;16.93;;;11.50;99.90;;;;;;5249546;28;20231;-63
2021/10/20 01:28:31;;;;;;;25.93;17.77;;;11.60;99.90;;;;;;5249354;28;20563;-66
2021/10/20 01:31:03;;;;;;;22.73;16.57;;;11.60;99.90;;;;;;5249243;28;20251;-67
2021/10/20 01:33:36;;;;;;;24.43;16.43;;;11.60;99.90;;;;;;5248936;28;20229;-63
2021/10/20 01:36:08;;;;;;;25.57;17.20;;;11.60;99.90;;;;;;5249278;28;20655;-65
2021/10/20 01:38:42;;;;;;;30.23;18.13;;;11.60;99.90;;;;;;5249102;28;20201;-64
2021/10/20 01:41:14;;;;;;;26.13;17.03;;;11.60;99.90;;;;;;5248902;28;20201;-65
2021/10/20 01:43:48;;;;;;;24.10;16.97;;;11.60;99.90;;;;;;5249032;28;20246;-64
2021/10/20 01:46:24;;;;;;;25.00;15.67;;;11.60;99.90;;;;;;5252307;28;20192;-65
2021/10/20 01:48:56;;;;;;;23.27;15.73;;;11.70;99.90;;;;;;5252801;28;20627;-64
2021/10/20 01:51:28;;;;;;;22.30;15.93;;;11.60;99.90;;;;;;5252750;28;20228;-62
2021/10/20 01:54:03;;;;;;;24.20;16.23;;;11.70;99.90;;;;;;5253072;28;20223;-64
2021/10/20 01:56:35;;;;;;;24.70;16.30;;;11.70;99.90;;;;;;5253260;28;20192;-64
2021/10/20 01:59:07;;;;;;;22.47;16.03;;;11.70;99.90;;;;;;5252700;28;20207;-69
2021/10/20 02:01:39;;;;;;;21.53;15.47;;;11.70;99.90;;;;;;5235420;28;20193;-67
2021/10/20 02:04:13;;;;;;;21.97;15.00;;;11.70;99.90;;;;;;5252253;28;20258;-67
2021/10/20 02:06:45;;;;;;;20.47;15.67;;;11.80;99.90;;;;;;5253259;28;20205;-65
2021/10/20 02:09:17;;;;;;;20.93;15.43;;;11.70;99.90;;;;;;5252734;28;20225;-67
2021/10/20 02:11:49;;;;;;;21.30;14.47;;;11.80;99.90;;;;;;5252302;28;20233;-62
2021/10/20 02:14:21;;;;;;;20.37;14.50;;;11.80;99.90;;;;;;5252694;28;20570;-63
2021/10/20 02:16:55;;;;;;;21.23;14.30;;;11.80;99.90;;;;;;5251420;28;20501;-69
2021/10/20 02:19:27;;;;;;;20.30;14.23;;;11.80;99.90;;;;;;5252779;28;20209;-65
2021/10/20 02:22:01;;;;;;;19.50;14.00;;;11.80;99.90;;;;;;5251557;28;20204;-66
2021/10/20 02:24:33;;;;;;;20.07;14.07;;;11.90;99.90;;;;;;5252839;28;20208;-64
2021/10/20 02:27:05;;;;;;;21.33;14.80;;;11.90;99.90;;;;;;5252379;28;20209;-64
2021/10/20 02:29:37;;;;;;;18.17;13.47;;;11.90;99.90;;;;;;5252399;28;20204;-63
2021/10/20 02:32:09;;;;;;;19.20;13.83;;;11.90;99.90;;;;;;5252142;28;20232;-67
2021/10/20 02:34:44;;;;;;;21.17;14.63;;;11.90;99.90;;;;;;5234474;28;20295;-61
2021/10/20 02:37:16;;;;;;;18.83;14.57;;;12.00;99.90;;;;;;5252475;28;20255;-64
2021/10/20 02:39:50;;;;;;;20.17;14.23;;;12.00;99.90;;;;;;5251988;28;20216;-63
2021/10/20 02:42:22;;;;;;;19.37;13.63;;;12.00;99.90;;;;;;5252602;28;20239;-65
2021/10/20 02:44:54;;;;;;;18.83;13.60;;;12.00;99.90;;;;;;5252148;28;20220;-63
2021/10/20 02:47:31;;;;;;;23.10;15.37;;;12.00;99.90;;;;;;5250915;28;20239;-66
2021/10/20 02:50:04;;;;;;;22.80;14.80;;;12.00;99.90;;;;;;5251991;28;20196;-64
2021/10/20 02:52:36;;;;;;;22.27;14.83;;;12.00;99.90;;;;;;5251799;28;20232;-68
2021/10/20 02:55:09;;;;;;;24.33;16.80;;;12.00;99.90;;;;;;5251871;28;20249;-65
2021/10/20 02:57:43;;;;;;;21.63;15.47;;;12.00;99.90;;;;;;5250496;28;20231;-65
2021/10/20 03:00:15;;;;;;;24.13;15.40;;;12.00;99.90;;;;;;5251533;28;20200;-63
2021/10/20 03:02:47;;;;;;;25.07;15.83;;;12.00;99.90;;;;;;5251444;28;20236;-66
2021/10/20 03:05:20;;;;;;;26.80;16.60;;;12.10;99.90;;;;;;5250968;28;20208;-64
2021/10/20 03:07:54;;;;;;;25.70;16.50;;;12.10;99.90;;;;;;5251398;28;20268;-65
2021/10/20 03:10:26;;;;;;;30.20;17.53;;;12.10;99.90;;;;;;5251455;28;20756;-63
2021/10/20 03:12:58;;;;;;;25.07;16.87;;;12.10;99.90;;;;;;5251357;28;20236;-65
2021/10/20 03:15:30;;;;;;;32.70;18.13;;;12.10;99.90;;;;;;5251316;28;20215;-66
2021/10/20 03:18:04;;;;;;;32.43;18.73;;;12.20;99.90;;;;;;5251089;28;20229;-68
2021/10/20 03:20:39;;;;;;;27.90;18.13;;;12.20;99.90;;;;;;5251016;28;20196;-63
2021/10/20 03:23:11;;;;;;;27.53;18.00;;;12.20;99.90;;;;;;5250786;28;20228;-67
2021/10/20 03:25:45;;;;;;;29.30;18.13;;;12.20;99.90;;;;;;5251088;28;20212;-66
2021/10/20 03:28:19;;;;;;;29.87;19.53;;;12.20;99.90;;;;;;5251002;28;20233;-63
2021/10/20 03:30:51;;;;;;;31.37;19.40;;;12.30;99.90;;;;;;5251286;28;20205;-65
2021/10/20 03:33:23;;;;;;;31.20;19.07;;;12.30;99.90;;;;;;5250353;28;20229;-64
2021/10/20 03:35:55;;;;;;;32.70;19.20;;;12.30;99.90;;;;;;5251137;28;20578;-67
2021/10/20 03:38:27;;;;;;;30.70;19.40;;;12.30;99.90;;;;;;5249724;28;20632;-64
2021/10/20 03:40:59;;;;;;;32.47;19.67;;;12.40;99.90;;;;;;5249389;28;20204;-64
2021/10/20 03:43:41;;;;;;;34.20;21.10;;;12.40;99.90;;;;;;5250805;28;20224;-66
2021/10/20 03:46:13;;;;;;;36.80;20.57;;;12.40;99.90;;;;;;5250395;28;20256;-64
2021/10/20 03:48:48;;;;;;;34.03;19.27;;;12.50;99.90;;;;;;5250162;28;20633;-68
2021/10/20 03:51:23;;;;;;;34.20;20.17;;;12.50;99.90;;;;;;5249202;28;20185;-66
2021/10/20 03:53:55;;;;;;;34.77;20.70;;;12.50;99.90;;;;;;5249967;28;20316;-66
2021/10/20 03:56:29;;;;;;;34.13;20.53;;;12.50;99.90;;;;;;5250133;28;20532;-67
2021/10/20 03:59:01;;;;;;;31.23;19.67;;;12.60;99.90;;;;;;5250014;28;20235;-66
2021/10/20 04:01:35;;;;;;;34.03;20.70;;;12.60;99.90;;;;;;5250019;28;20200;-65
2021/10/20 04:04:07;;;;;;;36.10;20.07;;;12.70;99.90;;;;;;5249824;28;20274;-67
2021/10/20 04:06:39;;;;;;;34.40;20.03;;;12.70;99.90;;;;;;5249688;28;20192;-68
2021/10/20 04:09:11;;;;;;;34.20;20.67;;;12.70;99.90;;;;;;5248688;28;20552;-63
2021/10/20 04:11:43;;;;;;;34.50;21.00;;;12.80;99.90;;;;;;5249604;28;20232;-63
2021/10/20 04:14:15;;;;;;;34.03;19.53;;;12.80;99.90;;;;;;5248839;28;20209;-62
2021/10/20 04:16:50;;;;;;;33.83;18.63;;;12.80;99.90;;;;;;5249558;28;20185;-69
2021/10/20 04:19:21;;;;;;;32.67;19.33;;;12.80;99.90;;;;;;5248749;28;20208;-63
2021/10/20 04:21:56;;;;;;;31.47;19.07;;;12.90;99.90;;;;;;5249962;28;20215;-67
2021/10/20 04:24:28;;;;;;;31.67;18.53;;;12.90;99.90;;;;;;5249764;28;20213;-67
2021/10/20 04:27:00;;;;;;;34.63;18.23;;;12.90;99.90;;;;;;5250270;28;20228;-65
2021/10/20 04:29:34;;;;;;;30.17;17.80;;;12.90;99.90;;;;;;5248947;28;20209;-67
2021/10/20 04:32:06;;;;;;;30.00;17.73;;;12.90;99.90;;;;;;5249505;28;20568;-65
2021/10/20 04:34:40;;;;;;;29.87;17.50;;;12.90;99.90;;;;;;5249623;28;20211;-62
2021/10/20 04:37:12;;;;;;;27.53;17.03;;;12.90;99.90;;;;;;5248477;28;20200;-65
2021/10/20 04:39:44;;;;;;;28.67;16.50;;;12.90;99.90;;;;;;5249562;28;20200;-67
2021/10/20 04:42:21;;;;;;;32.37;17.53;;;12.90;99.90;;;;;;5249093;28;20205;-63
2021/10/20 04:44:54;;;;;;;28.93;17.37;;;12.90;99.90;;;;;;5249317;28;20242;-66
2021/10/20 04:47:26;;;;;;;26.90;15.73;;;12.90;99.90;;;;;;5249468;28;20220;-65
2021/10/20 04:50:00;;;;;;;27.73;17.03;;;12.90;99.90;;;;;;5249266;28;20215;-66
2021/10/20 04:52:35;;;;;;;31.93;18.47;;;12.90;99.90;;;;;;5248395;28;20603;-64
2021/10/20 04:55:07;;;;;;;28.33;15.90;;;12.90;99.90;;;;;;5249335;28;20192;-64
2021/10/20 04:57:42;;;;;;;30.43;18.00;;;12.90;99.90;;;;;;5249101;28;20535;-61
2021/10/20 05:00:14;;;;;;;31.53;17.60;;;13.00;99.90;;;;;;5249484;28;20525;-64
2021/10/20 05:02:47;;;;;;;25.87;16.20;;;13.00;99.90;;;;;;5247665;28;20204;-65
2021/10/20 05:05:19;;;;;;;29.20;17.10;;;13.00;99.90;;;;;;5248112;28;20686;-62
2021/10/20 05:07:53;;;;;;;30.07;17.73;;;13.00;99.90;;;;;;5247963;28;20239;-66
2021/10/20 05:10:26;;;;;;;29.77;18.30;;;13.00;99.90;;;;;;5248453;28;20229;-63
2021/10/20 05:12:58;;;;;;;30.10;17.60;;;13.00;99.90;;;;;;5248956;28;20233;-64
2021/10/20 05:15:30;;;;;;;31.73;18.83;;;13.10;99.90;;;;;;5249370;28;20581;-64
2021/10/20 05:18:02;;;;;;;34.00;19.43;;;13.10;99.90;;;;;;5249644;28;20232;-66
2021/10/20 05:20:36;;;;;;;33.70;18.13;;;13.10;99.90;;;;;;5237536;28;20648;-64
2021/10/20 05:23:11;;;;;;;34.70;19.23;;;13.10;99.90;;;;;;5253237;28;20208;-66
2021/10/20 05:25:43;;;;;;;31.47;18.27;;;13.10;99.90;;;;;;5263851;28;20200;-62
2021/10/20 05:28:15;;;;;;;31.70;18.40;;;13.20;99.90;;;;;;5252209;28;20224;-67
2021/10/20 05:30:47;;;;;;;29.17;17.27;;;13.20;99.90;;;;;;5260494;28;20207;-63
2021/10/20 05:33:19;;;;;;;33.60;18.13;;;13.20;99.90;;;;;;5265304;28;20219;-63
2021/10/20 05:35:53;;;;;;;35.17;18.97;;;13.20;99.90;;;;;;5262229;28;20197;-66
2021/10/20 05:38:25;;;;;;;30.97;18.17;;;13.20;99.90;;;;;;5267635;28;20242;-68
2021/10/20 05:40:59;;;;;;;30.77;18.10;;;13.20;99.90;;;;;;5260954;28;20624;-68
2021/10/20 05:43:31;;;;;;;30.83;17.60;;;13.30;99.90;;;;;;5263397;28;20224;-68
2021/10/20 05:46:05;;;;;;;31.17;17.67;;;13.30;99.90;;;;;;5266790;28;20204;-68
2021/10/20 05:48:37;;;;;;;30.00;18.57;;;13.30;99.90;;;;;;5273233;28;20724;-66
2021/10/20 05:51:09;;;;;;;28.23;17.27;;;13.30;99.90;;;;;;5272785;28;20207;-66
2021/10/20 05:53:41;;;;;;;31.67;21.05;;;13.30;99.90;;;;;;5272906;28;20442;-68
2021/10/20 05:56:13;;;;;;;29.03;18.33;;;13.30;99.90;;;;;;5253462;28;20209;-66
2021/10/20 05:58:47;;;;;;;29.70;17.03;;;13.30;99.90;;;;;;5250830;28;20224;-68
2021/10/20 06:01:23;;;;;;;28.73;17.03;;;13.30;99.90;;;;;;5253250;28;20205;-66
2021/10/20 06:03:55;;;;;;;27.37;16.37;;;13.40;99.90;;;;;;5252751;28;20236;-69
2021/10/20 06:06:27;;;;;;;27.43;15.97;;;13.40;99.90;;;;;;5252635;28;20239;-66
2021/10/20 06:08:59;;;;;;;27.63;16.03;;;13.40;99.90;;;;;;5250211;28;20540;-68
2021/10/20 06:11:33;;;;;;;28.87;16.93;;;13.50;99.90;;;;;;5251715;28;20251;-67
2021/10/20 06:14:05;;;;;;;30.47;17.30;;;13.50;99.90;;;;;;5252163;28;20246;-69
2021/10/20 06:16:41;;;;;;;30.47;16.90;;;13.60;99.90;;;;;;5252267;28;20239;-65
2021/10/20 06:19:13;;;;;;;29.80;16.90;;;13.60;99.90;;;;;;5252181;28;20565;-65
2021/10/20 06:21:46;;;;;;;27.20;17.47;;;13.60;99.90;;;;;;5251874;28;20215;-67
2021/10/20 06:24:18;;;;;;;26.43;16.23;;;13.60;99.90;;;;;;5252092;28;20694;-68
2021/10/20 06:26:50;;;;;;;26.77;15.93;;;13.60;99.90;;;;;;5250747;28;20212;-68
2021/10/20 06:29:27;;;;;;;27.17;15.93;;;13.60;99.90;;;;;;5251645;28;20255;-65
2021/10/20 06:32:02;;;;;;;31.27;17.57;;;13.70;99.90;;;;;;5251175;28;20529;-65
2021/10/20 06:34:35;;;;;;;29.33;17.10;;;13.60;99.90;;;;;;5252107;28;20247;-64
2021/10/20 06:37:12;;;;;;;29.33;18.13;;;13.70;99.90;;;;;;5251320;28;20601;-65
2021/10/20 06:39:44;;;;;;;31.70;17.67;;;13.70;99.90;;;;;;5251773;28;20228;-65
2021/10/20 06:42:16;;;;;;;29.47;17.57;;;13.70;99.90;;;;;;5251343;28;20224;-63
2021/10/20 06:44:48;;;;;;;31.23;17.73;;;13.70;99.90;;;;;;5250446;28;20324;-67
2021/10/20 06:47:23;;;;;;;26.93;17.07;;;13.70;99.90;;;;;;5250729;28;20216;-64
2021/10/20 06:49:55;;;;;;;29.03;17.77;;;13.70;99.90;;;;;;5251353;28;20224;-64
2021/10/20 06:52:27;;;;;;;30.23;17.80;;;13.80;99.90;;;;;;5251266;28;20499;-67
2021/10/20 06:54:59;;;;;;;28.27;18.20;;;13.80;99.90;;;;;;5251427;28;20247;-64
2021/10/20 06:57:33;;;;;;;30.43;17.47;;;13.80;99.90;;;;;;5251400;28;20216;-62
2021/10/20 07:00:06;;;;;;;27.93;17.93;;;13.80;99.90;;;;;;5251217;28;20353;-67
2021/10/20 07:02:38;;;;;;;28.80;18.53;;;13.90;99.90;;;;;;5250587;28;20204;-65
2021/10/20 07:05:10;;;;;;;27.77;18.17;;;13.90;99.90;;;;;;5250725;28;20494;-65
2021/10/20 07:07:42;;;;;;;26.13;17.47;;;14.00;99.90;;;;;;5251013;28;20638;-65
2021/10/20 07:10:20;;;;;;;28.70;19.77;;;14.00;99.90;;;;;;5249602;28;20558;-63
2021/10/20 07:12:54;;;;;;;28.73;17.93;;;14.00;99.90;;;;;;5233407;28;20213;-67
2021/10/20 07:15:26;;;;;;;28.70;18.77;;;14.10;99.90;;;;;;5250918;28;20218;-61
2021/10/20 07:17:58;;;;;;;29.10;18.33;;;14.10;99.90;;;;;;5232979;28;20622;-65
2021/10/20 07:20:30;;;;;;;29.37;18.53;;;14.20;99.90;;;;;;5236983;28;20502;-65
2021/10/20 07:23:02;;;;;;;29.50;17.93;;;14.20;99.90;;;;;;5253115;28;20204;-63
2021/10/20 07:25:34;;;;;;;27.20;18.13;;;14.20;99.90;;;;;;5252780;28;20666;-61
2021/10/20 07:28:10;;;;;;;28.43;17.80;;;14.30;99.90;;;;;;5253048;28;20199;-67
2021/10/20 07:30:42;;;;;;;27.10;17.40;;;14.30;99.90;;;;;;5252331;28;20210;-65
2021/10/20 07:33:14;;;;;;;26.10;17.97;;;14.30;99.90;;;;;;5250855;28;20643;-65
2021/10/20 07:35:48;;;;;;;24.73;18.53;;;14.40;99.90;;;;;;5252129;28;20207;-65
2021/10/20 07:38:25;;;;;;;27.53;18.70;;;14.40;99.90;;;;;;5252887;28;20196;-63
2021/10/20 07:40:59;;;;;;;29.10;18.57;;;14.40;99.90;;;;;;5251520;28;20506;-63
2021/10/20 07:43:33;;;;;;;25.97;16.90;;;14.50;99.90;;;;;;5249780;28;20208;-66
2021/10/20 07:46:05;;;;;;;25.83;17.47;;;14.50;99.90;;;;;;5250596;28;20215;-64
2021/10/20 07:48:39;;;;;;;26.87;17.70;;;14.50;99.90;;;;;;5249666;28;20271;-65
2021/10/20 07:51:12;;;;;;;26.03;18.80;;;14.60;99.90;;;;;;5250213;28;20208;-65
2021/10/20 07:53:44;;;;;;;25.40;17.87;;;14.70;99.90;;;;;;5249747;28;20320;-67
2021/10/20 07:56:16;;;;;;;25.23;16.77;;;14.70;99.90;;;;;;5250383;28;20197;-67
2021/10/20 07:58:47;;;;;;;28.17;17.70;;;14.80;99.90;;;;;;5250269;28;20201;-65
2021/10/20 08:01:20;;;;;;;26.77;17.53;;;14.80;99.90;;;;;;5250291;28;20201;-66
2021/10/20 08:03:58;;;;;;;24.97;16.90;;;14.80;99.90;;;;;;5288901;27;20658;-63
2021/10/20 08:06:31;;;;;;;24.60;17.40;;;14.90;99.90;;;;;;5271040;28;20548;-64
2021/10/20 08:09:04;;;;;;;26.60;17.17;;;14.90;99.90;;;;;;5288021;28;20606;-67
2021/10/20 08:11:36;;;;;;;24.97;17.03;;;14.90;99.90;;;;;;5270347;28;20203;-70
2021/10/20 08:14:08;;;;;;;22.80;15.87;;;15.00;99.90;;;;;;5270175;28;20210;-64
2021/10/20 08:16:40;;;;;;;24.73;16.37;;;15.10;99.90;;;;;;5288626;28;20537;-64
2021/10/20 08:19:12;;;;;;;23.50;16.53;;;15.10;99.90;;;;;;5270156;28;20228;-66
2021/10/20 08:21:46;;;;;;;23.87;16.03;;;15.10;99.90;;;;;;5288642;28;20535;-65
2021/10/20 08:24:18;;;;;;;23.57;16.63;;;15.10;99.90;;;;;;5288378;28;20330;-64
2021/10/20 08:26:50;;;;;;;22.20;14.97;;;15.10;99.90;;;;;;5288317;28;20195;-68
2021/10/20 08:29:22;;;;;;;22.17;15.50;;;15.20;99.90;;;;;;5287923;28;20227;-64
2021/10/20 08:31:57;;;;;;;21.00;15.13;;;15.20;99.90;;;;;;5288136;28;20200;-63
2021/10/20 08:34:29;;;;;;;20.30;14.93;;;15.30;99.90;;;;;;5287929;28;20279;-65
2021/10/20 08:37:01;;;;;;;20.73;16.07;;;15.40;99.90;;;;;;5288346;28;20204;-69
2021/10/20 08:39:33;;;;;;;22.30;15.03;;;15.40;99.90;;;;;;5270539;28;20231;-69
2021/10/20 08:42:06;;;;;;;21.43;14.90;;;15.40;99.90;;;;;;5287777;28;20219;-66
2021/10/20 08:44:44;;;;;;;22.57;15.97;;;15.40;99.90;;;;;;5287754;28;20227;-61
2021/10/20 08:47:17;;;;;;;21.87;14.97;;;15.50;99.90;;;;;;5288264;28;20226;-64
2021/10/20 08:49:52;;;;;;;20.93;15.20;;;15.50;99.90;;;;;;5287485;28;20730;-67
2021/10/20 08:52:24;;;;;;;22.73;15.97;;;15.60;99.90;;;;;;5269943;28;20203;-71
2021/10/20 08:55:00;;;;;;;22.20;15.13;;;15.60;99.90;;;;;;5287710;28;20239;-68
2021/10/20 08:57:34;;;;;;;22.70;16.20;;;15.60;99.90;;;;;;5287550;28;20199;-70
2021/10/20 09:00:08;;;;;;;20.30;14.97;;;15.60;99.90;;;;;;5269502;28;20222;-71
2021/10/20 09:02:45;;;;;;;22.43;15.37;;;15.60;99.90;;;;;;5287385;28;20235;-65
2021/10/20 09:05:24;;;;;;;21.20;15.20;;;15.70;99.90;;;;;;5287531;28;20313;-64
2021/10/20 09:07:57;;;;;;;21.50;14.40;;;15.90;99.90;;;;;;5287632;28;20210;-69
2021/10/20 09:10:32;;;;;;;18.13;13.87;;;16.00;99.90;;;;;;5269274;28;20230;-70
2021/10/20 09:13:05;;;;;;;17.57;13.77;;;16.00;99.90;;;;;;5290788;28;20203;-70
2021/10/20 09:15:37;;;;;;;21.77;14.53;;;16.10;99.90;;;;;;5273481;28;20235;-69
2021/10/20 09:18:12;;;;;;;19.43;13.90;;;16.10;99.90;;;;;;5274126;28;20208;-61
2021/10/20 09:20:46;;;;;;;19.83;13.33;;;16.20;99.90;;;;;;5273207;28;20231;-67
2021/10/20 09:23:20;;;;;;;18.60;12.90;;;16.20;99.90;;;;;;5272984;28;20557;-67
2021/10/20 09:25:58;;;;;;;18.20;12.57;;;16.30;99.90;;;;;;5272213;28;20230;-65
2021/10/20 09:28:34;;;;;;;16.37;11.80;;;16.30;99.90;;;;;;5272650;28;20188;-67
2021/10/20 09:31:28;;;;;;;16.13;12.27;;;16.30;99.90;;;;;;5252137;28;20251;-62
2021/10/20 09:34:08;;;;;;;17.60;11.50;;;16.40;99.90;;;;;;5252389;28;20205;-62
2021/10/20 09:36:40;;;;;;;16.70;12.17;;;16.40;99.90;;;;;;5255151;28;20288;-66
2021/10/20 09:39:15;;;;;;;15.10;11.80;;;16.50;99.90;;;;;;5255293;28;20616;-64
2021/10/20 09:42:10;;;;;;;18.23;10.80;;;16.60;99.90;;;;;;5272642;28;20242;-55
2021/10/20 09:44:50;;;;;;;15.77;11.20;;;16.70;99.90;;;;;;5254960;28;20512;-51
2021/10/20 09:47:24;;;;;;;17.37;11.87;;;16.80;99.90;;;;;;5272397;28;20232;-53
2021/10/20 09:49:57;;;;;;;14.57;10.37;;;16.90;99.90;;;;;;5272718;28;20211;-53
2021/10/20 09:52:28;;;;;;;17.23;9.87;;;17.00;99.90;;;;;;5254221;28;20232;-51
2021/10/20 09:55:00;;;;;;;12.43;9.77;;;17.00;99.90;;;;;;5272493;28;20598;-55
2021/10/20 09:57:35;;;;;;;12.00;9.23;;;17.10;99.90;;;;;;5271948;28;20228;-54
2021/10/20 10:00:07;;;;;;;13.37;8.77;;;17.20;99.90;;;;;;5253982;28;20235;-52
2021/10/20 10:02:42;;;;;;;14.23;9.17;;;17.10;99.90;;;;;;5271735;28;20829;-55
2021/10/20 10:05:14;;;;;;;15.97;9.53;;;17.10;99.90;;;;;;5272015;28;20279;-51
2021/10/20 10:07:49;;;;;;;12.50;9.07;;;17.10;99.90;;;;;;5254395;28;20227;-51
2021/10/20 10:10:24;;;;;;;17.63;8.90;;;17.10;99.90;;;;;;5254384;28;20199;-51
2021/10/20 10:13:09;;;;;;;13.33;8.67;;;17.10;99.90;;;;;;5256843;28;20242;-51
2021/10/20 10:15:45;;;;;;;14.53;9.40;;;17.20;99.90;;;;;;5271656;28;20197;-48
2021/10/20 10:18:18;;;;;;;16.97;10.27;;;17.20;99.90;;;;;;5271358;28;20292;-51
2021/10/20 10:20:52;;;;;;;13.83;9.10;;;17.30;99.90;;;;;;5271525;28;20218;-51
2021/10/20 10:23:26;;;;;;;10.83;7.97;;;17.30;99.90;;;;;;5254022;28;20237;-56
2021/10/20 10:26:07;;;;;;;11.87;8.50;;;17.40;99.90;;;;;;5270567;28;20196;-57
2021/10/20 10:28:39;;;;;;;13.30;9.07;;;17.50;99.90;;;;;;5253931;28;20517;-52
2021/10/20 10:31:12;;;;;;;11.27;8.40;;;17.50;99.90;;;;;;5271101;28;20630;-58
2021/10/20 10:33:53;;;;;;;11.57;8.30;;;17.50;99.90;;;;;;5271479;28;20602;-49
2021/10/20 10:36:27;;;;;;;15.77;8.53;;;17.60;99.90;;;;;;5271286;28;20645;-53
2021/10/20 10:38:59;;;;;;;10.33;8.00;;;17.60;99.90;;;;;;5271253;28;20235;-52
2021/10/20 10:41:45;;;;;;;10.10;7.53;;;17.60;99.90;;;;;;5274193;28;20204;-51
2021/10/20 10:44:47;;;;;;;10.80;7.53;;;17.70;99.90;;;;;;5292353;28;20306;-50
2021/10/20 10:47:27;;;;;;;11.87;7.67;;;17.70;99.90;;;;;;5292229;28;20199;-52
2021/10/20 10:49:59;;;;;;;10.73;8.07;;;17.70;99.90;;;;;;5274471;28;20222;-54
2021/10/20 10:52:37;;;;;;;13.10;8.30;;;17.70;99.90;;;;;;5290899;28;20203;-52
2021/10/20 10:55:23;;;;;;;12.80;8.23;;;17.70;99.90;;;;;;5270785;28;20246;-54
2021/10/20 10:58:03;;;;;;;10.10;7.33;;;17.70;99.90;;;;;;5253539;28;20658;-54
2021/10/20 11:00:45;;;;;;;11.40;8.20;;;17.70;99.90;;;;;;5270878;28;20227;-53
2021/10/20 11:03:22;;;;;;;10.30;7.70;;;17.70;99.90;;;;;;5270645;28;20324;-54
2021/10/20 11:06:01;;;;;;;11.13;8.02;;;17.70;99.90;;;;;;5270897;28;20180;-50
2021/10/20 11:08:33;;;;;;;10.33;7.00;;;17.80;99.90;;;;;;5272779;28;20192;-66
2021/10/20 11:11:06;;;;;;;11.52;7.65;;;17.90;99.90;;;;;;5293589;28;20270;-66
2021/10/20 11:13:40;;;;;;;10.95;7.75;;;17.90;99.90;;;;;;5291807;28;20209;-66
2021/10/20 11:16:12;;;;;;;10.13;7.53;;;17.90;99.90;;;;;;5292122;28;20230;-67
2021/10/20 11:18:54;;;;;;;11.88;7.80;;;18.00;99.90;;;;;;5292042;28;20203;-66
2021/10/20 11:21:26;;;;;;;11.73;7.68;;;18.10;99.90;;;;;;5249759;28;20236;-65
2021/10/20 11:23:59;;;;;;;10.32;7.85;;;18.10;99.90;;;;;;5231897;28;20225;-65
2021/10/20 11:26:31;;;;;;;14.02;8.07;;;18.10;99.90;;;;;;5236938;28;20635;-67
2021/10/20 11:29:09;;;;;;;12.38;7.93;;;18.10;99.90;;;;;;5269932;28;20203;-68
2021/10/20 11:31:58;;;;;;;10.00;7.78;;;18.20;99.90;;;;;;5252153;28;20220;-69
2021/10/20 11:34:33;;;;;;;10.82;7.70;;;18.20;99.90;;;;;;5270832;28;20222;-68
2021/10/20 11:37:06;;;;;;;10.07;7.07;;;18.30;99.90;;;;;;5270311;28;20231;-67
2021/10/20 11:39:41;;;;;;;11.17;7.37;;;18.30;99.90;;;;;;5270618;28;20631;-67
2021/10/20 11:42:13;;;;;;;11.52;7.20;;;18.30;99.90;;;;;;5270603;28;20537;-69
2021/10/20 11:44:46;;;;;;;10.13;7.28;;;18.30;99.90;;;;;;5269815;28;20227;-64
2021/10/20 11:47:19;;;;;;;8.25;7.10;;;18.30;99.90;;;;;;5270635;28;20207;-67
2021/10/20 11:49:53;;;;;;;9.27;7.18;;;18.40;99.90;;;;;;5270286;28;20204;-68
2021/10/20 11:52:30;;;;;;;11.45;7.70;;;18.40;99.90;;;;;;5270249;28;20220;-66
2021/10/20 11:55:04;;;;;;;10.30;7.10;;;18.30;99.90;;;;;;5252779;28;20200;-68
2021/10/20 11:57:37;;;;;;;12.02;7.53;;;18.40;99.90;;;;;;5270046;28;20231;-65
2021/10/20 12:00:12;;;;;;;14.13;7.75;;;18.30;99.90;;;;;;5252402;28;20215;-69
2021/10/20 12:02:44;;;;;;;12.82;7.43;;;18.40;99.90;;;;;;5269785;28;20239;-69
2021/10/20 12:05:16;;;;;;;11.52;8.02;;;18.50;99.90;;;;;;5277323;28;20287;-66
2021/10/20 12:07:49;;;;;;;10.00;7.13;;;18.70;99.90;;;;;;5291336;28;20231;-64
2021/10/20 12:10:21;;;;;;;12.52;7.72;;;18.80;99.90;;;;;;5290946;28;20195;-67
2021/10/20 12:12:53;;;;;;;10.35;7.13;;;18.60;99.90;;;;;;5290975;28;20241;-69
2021/10/20 12:15:30;;;;;;;10.68;7.47;;;18.40;99.90;;;;;;5290793;28;20627;-69
2021/10/20 12:18:02;;;;;;;15.40;7.93;;;18.30;99.90;;;;;;5291500;28;20230;-67
2021/10/20 12:20:34;;;;;;;11.50;7.82;;;18.20;99.90;;;;;;5290491;28;20650;-69
2021/10/20 12:23:07;;;;;;;11.25;7.35;;;18.10;99.90;;;;;;5276788;28;20545;-66
2021/10/20 12:25:39;;;;;;;17.08;8.23;;;18.00;99.90;;;;;;5270013;28;20193;-70
2021/10/20 12:28:11;;;;;;;10.13;7.45;;;17.90;99.90;;;;;;5268555;28;20235;-69
2021/10/20 12:30:43;;;;;;;10.88;7.80;;;17.90;99.90;;;;;;5261048;28;20204;-71
2021/10/20 12:33:20;;;;;;;13.73;7.80;;;17.90;99.90;;;;;;5269256;28;20235;-68
2021/10/20 12:35:52;;;;;;;10.48;7.03;;;17.90;99.90;;;;;;5269622;28;20219;-67
2021/10/20 12:38:25;;;;;;;11.73;7.80;;;17.90;99.90;;;;;;5252094;28;20220;-69
2021/10/20 12:41:06;;;;;;;11.80;8.82;;;17.90;99.90;;;;;;5269395;28;20216;-70
2021/10/20 12:43:39;;;;;;;11.68;8.85;;;17.90;99.90;;;;;;5252370;28;20232;-71
2021/10/20 12:46:33;;;;;;;12.32;8.25;;;17.90;99.90;;;;;;5270292;28;20257;-71
2021/10/20 12:49:08;;;;;;;12.20;8.00;;;17.80;99.90;;;;;;5271418;28;20227;-63
2021/10/20 12:51:45;;;;;;;12.77;8.77;;;17.70;99.90;;;;;;5273444;28;20233;-64
2021/10/20 12:54:37;;;;;;;11.57;8.65;;;17.70;99.90;;;;;;5273274;28;20243;-65
2021/10/20 12:57:14;;;;;;;11.57;8.43;;;17.70;99.90;;;;;;5255712;28;20207;-69
2021/10/20 12:59:46;;;;;;;10.77;8.43;;;17.60;99.90;;;;;;5272816;28;20228;-67
2021/10/20 13:02:22;;;;;;;11.80;8.00;;;17.60;99.90;;;;;;5261287;28;20259;-66